Time;durP1;ratioP1;P1;durP2;ratioP2;P2;SDS_P1;SDS_P2;PMS_P1;PMS_P2;Temp;Humidity;BMP_temperature;BMP_pressure;BME280_temperature;BME280_humidity;BME280_pressure;Samples;Min_cycle;Max_cycle;Signal;HPM_P1;HPM_P2
2023/08/23 00:01:22;;;;;;;;;;;;;;;;;;5051018;28;4849;-57
2023/08/23 00:03:48;;;;;;;;;;;;;;;;;;5057941;28;5120;-57
2023/08/23 00:06:13;;;;;;;;;;;;;;;;;;5060692;28;5055;-57
2023/08/23 00:08:38;;;;;;;;;;;;;;;;;;5061382;28;1227;-57
2023/08/23 00:11:03;;;;;;;;;;;;;;;;;;5055817;28;4534;-57
2023/08/23 00:13:29;;;;;;;;;;;;;;;;;;5050758;28;5266;-56
2023/08/23 00:15:54;;;;;;;;;;;;;;;;;;5060408;28;5086;-57
2023/08/23 00:18:19;;;;;;;;;;;;;;;;;;5059714;28;5072;-57
2023/08/23 00:20:44;;;;;;;;;;;;;;;;;;5066150;28;4984;-57
2023/08/23 00:23:10;;;;;;;;;;;;;;;;;;5053763;28;1728;-57
2023/08/23 00:25:35;;;;;;;;;;;;;;;;;;5062488;28;4855;-56
2023/08/23 00:28:00;;;;;;;;;;;;;;;;;;5055172;28;4431;-57
2023/08/23 00:30:25;;;;;;;;;;;;;;;;;;5065413;28;5063;-56
2023/08/23 00:32:51;;;;;;;;;;;;;;;;;;5069874;28;5019;-56
2023/08/23 00:35:16;;;;;;;;;;;;;;;;;;5086901;28;1164;-56
2023/08/23 00:37:41;;;;;;;;;;;;;;;;;;5080174;28;5075;-56
2023/08/23 00:40:08;;;;;;;;;;;;;;;;;;5060361;28;4829;-56
2023/08/23 00:42:33;;;;;;;;;;;;;;;;;;5072952;28;4972;-56
2023/08/23 00:44:58;;;;;;;;;;;;;;;;;;5075555;28;5123;-57
2023/08/23 00:47:23;;;;;;;;;;;;;;;;;;5073057;28;1031;-56
2023/08/23 00:49:49;;;;;;;;;;;;;;;;;;5083097;28;5074;-57
2023/08/23 00:52:14;;;;;;;;;;;;;;;;;;5064565;28;5088;-57
2023/08/23 00:54:40;;;;;;;;;;;;;;;;;;5093381;28;4819;-57
2023/08/23 00:57:05;;;;;;;;;;;;;;;;;;5093614;28;4531;-57
2023/08/23 00:59:30;;;;;;;;;;;;;;;;;;5058952;28;1088;-56
2023/08/23 01:01:55;;;;;;;;;;;;;;;;;;5052717;28;5064;-56
2023/08/23 01:04:21;;;;;;;;;;;;;;;;;;5050622;28;4960;-56
2023/08/23 01:06:58;;;;;;;;;;;;;;;;;;5049421;28;5071;-57
2023/08/23 01:09:25;;;;;;;;;;;;;;;;;;5050455;28;5327;-56
2023/08/23 01:12:08;;;;;;;;;;;;;;;;;;5068060;28;5122;-57
2023/08/23 01:14:45;;;;;;;;;;;;;;;;;;5065141;28;1128;-56
2023/08/23 01:17:11;;;;;;;;;;;;;;;;;;5070561;28;5080;-57
2023/08/23 01:19:40;;;;;;;;;;;;;;;;;;5071923;28;5066;-57
2023/08/23 01:22:05;;;;;;;;;;;;;;;;;;5068203;28;4995;-57
2023/08/23 01:24:31;;;;;;;;;;;;;;;;;;5077943;28;4627;-57
2023/08/23 01:26:56;;;;;;;;;;;;;;;;;;5073852;28;5096;-56
2023/08/23 01:29:21;;;;;;;;;;;;;;;;;;5080285;28;1120;-57
2023/08/23 01:31:46;;;;;;;;;;;;;;;;;;5070804;28;5005;-57
2023/08/23 01:34:15;;;;;;;;;;;;;;;;;;5068177;28;5162;-57
2023/08/23 01:36:41;;;;;;;;;;;;;;;;;;5052595;28;5094;-56
2023/08/23 01:39:06;;;;;;;;;;;;;;;;;;5079306;28;5217;-57
2023/08/23 01:41:32;;;;;;;;;;;;;;;;;;5078333;28;1160;-56
2023/08/23 01:43:57;;;;;;;;;;;;;;;;;;5078048;28;5093;-57
2023/08/23 01:46:22;;;;;;;;;;;;;;;;;;5082939;28;4999;-56
2023/08/23 01:48:47;;;;;;;;;;;;;;;;;;5078839;28;5095;-57
2023/08/23 01:51:13;;;;;;;;;;;;;;;;;;5071972;28;4628;-56
2023/08/23 01:53:38;;;;;;;;;;;;;;;;;;5071042;28;1922;-57
2023/08/23 01:56:03;;;;;;;;;;;;;;;;;;5052614;28;4411;-57
2023/08/23 01:58:28;;;;;;;;;;;;;;;;;;5056887;28;5232;-57
2023/08/23 02:00:54;;;;;;;;;;;;;;;;;;5048192;28;5042;-57
2023/08/23 02:03:20;;;;;;;;;;;;;;;;;;5054205;28;5117;-57
2023/08/23 02:05:46;;;;;;;;;;;;;;;;;;5051095;28;5052;-57
2023/08/23 02:08:14;;;;;;;;;;;;;;;;;;5053499;28;1182;-57
2023/08/23 02:10:39;;;;;;;;;;;;;;;;;;5049292;28;4771;-57
2023/08/23 02:13:06;;;;;;;;;;;;;;;;;;5058294;28;5001;-57
2023/08/23 02:15:31;;;;;;;;;;;;;;;;;;5049877;28;4640;-56
2023/08/23 02:17:57;;;;;;;;;;;;;;;;;;5057041;28;5214;-57
2023/08/23 02:20:22;;;;;;;;;;;;;;;;;;5048577;28;1182;-57
2023/08/23 02:22:47;;;;;;;;;;;;;;;;;;5072202;28;4970;-57
2023/08/23 02:25:12;;;;;;;;;;;;;;;;;;5058903;28;4864;-57
2023/08/23 02:27:38;;;;;;;;;;;;;;;;;;5060868;28;4432;-56
2023/08/23 02:30:03;;;;;;;;;;;;;;;;;;5056047;28;4443;-57
2023/08/23 02:32:28;;;;;;;;;;;;;;;;;;5052936;28;1918;-57
2023/08/23 02:34:54;;;;;;;;;;;;;;;;;;5052548;28;4916;-57
2023/08/23 02:37:19;;;;;;;;;;;;;;;;;;5059117;28;4429;-57
2023/08/23 02:39:44;;;;;;;;;;;;;;;;;;5058531;28;4574;-57
2023/08/23 02:42:09;;;;;;;;;;;;;;;;;;5064851;28;5227;-57
2023/08/23 02:44:35;;;;;;;;;;;;;;;;;;5056920;28;1152;-57
2023/08/23 02:47:00;;;;;;;;;;;;;;;;;;5048345;28;5097;-57
2023/08/23 02:49:25;;;;;;;;;;;;;;;;;;5053554;28;5080;-57
2023/08/23 02:51:50;;;;;;;;;;;;;;;;;;5052023;28;4854;-57
2023/08/23 02:54:16;;;;;;;;;;;;;;;;;;5054235;28;5159;-56
2023/08/23 02:56:41;;;;;;;;;;;;;;;;;;5073241;28;5407;-57
2023/08/23 02:59:06;;;;;;;;;;;;;;;;;;5078669;28;1258;-57
2023/08/23 03:01:31;;;;;;;;;;;;;;;;;;5068573;28;4861;-57
2023/08/23 03:03:57;;;;;;;;;;;;;;;;;;5074085;28;5005;-57
2023/08/23 03:06:22;;;;;;;;;;;;;;;;;;5075249;28;4949;-57
2023/08/23 03:08:47;;;;;;;;;;;;;;;;;;5071055;28;4645;-56
2023/08/23 03:11:13;;;;;;;;;;;;;;;;;;5071230;28;1250;-56
2023/08/23 03:13:38;;;;;;;;;;;;;;;;;;5069353;28;5024;-57
2023/08/23 03:16:03;;;;;;;;;;;;;;;;;;5067129;28;4675;-56
2023/08/23 03:18:29;;;;;;;;;;;;;;;;;;5069666;28;5168;-57
2023/08/23 03:20:54;;;;;;;;;;;;;;;;;;5073190;28;4964;-56
2023/08/23 03:23:19;;;;;;;;;;;;;;;;;;5071467;28;1325;-57
2023/08/23 03:25:45;;;;;;;;;;;;;;;;;;5078550;28;5553;-57
2023/08/23 03:28:10;;;;;;;;;;;;;;;;;;5071190;28;4431;-57
2023/08/23 03:30:35;;;;;;;;;;;;;;;;;;5078935;28;4850;-56
2023/08/23 03:33:01;;;;;;;;;;;;;;;;;;5072090;28;4476;-56
2023/08/23 03:35:29;;;;;;;;;;;;;;;;;;5079187;28;1285;-56
2023/08/23 03:37:54;;;;;;;;;;;;;;;;;;5079731;28;4985;-56
2023/08/23 03:40:19;;;;;;;;;;;;;;;;;;5078342;28;5155;-56
2023/08/23 03:42:45;;;;;;;;;;;;;;;;;;5069783;28;5257;-56
2023/08/23 03:45:10;;;;;;;;;;;;;;;;;;5077242;28;5069;-57
2023/08/23 03:47:36;;;;;;;;;;;;;;;;;;5081260;28;1286;-56
2023/08/23 03:50:01;;;;;;;;;;;;;;;;;;5083108;28;4594;-56
2023/08/23 03:52:26;;;;;;;;;;;;;;;;;;5067371;28;5401;-56
2023/08/23 03:54:51;;;;;;;;;;;;;;;;;;5075100;28;4400;-56
2023/08/23 03:57:17;;;;;;;;;;;;;;;;;;5071515;28;5130;-56
2023/08/23 03:59:42;;;;;;;;;;;;;;;;;;5075887;28;5291;-56
2023/08/23 04:02:07;;;;;;;;;;;;;;;;;;5098663;28;1120;-57
2023/08/23 04:04:32;;;;;;;;;;;;;;;;;;5094384;28;5008;-56
2023/08/23 04:06:58;;;;;;;;;;;;;;;;;;5096937;28;5037;-56
2023/08/23 04:09:23;;;;;;;;;;;;;;;;;;5090878;28;5051;-56
2023/08/23 04:11:48;;;;;;;;;;;;;;;;;;5072254;28;5033;-56
2023/08/23 04:14:13;;;;;;;;;;;;;;;;;;5095564;28;1976;-56
2023/08/23 04:16:39;;;;;;;;;;;;;;;;;;5109438;27;4956;-56
2023/08/23 04:19:04;;;;;;;;;;;;;;;;;;5091341;28;4612;-56
2023/08/23 04:21:29;;;;;;;;;;;;;;;;;;5090409;28;5022;-56
2023/08/23 04:23:55;;;;;;;;;;;;;;;;;;5091014;28;4544;-56
2023/08/23 04:26:20;;;;;;;;;;;;;;;;;;5099652;28;1246;-56
2023/08/23 04:28:46;;;;;;;;;;;;;;;;;;5097948;28;5061;-56
2023/08/23 04:31:11;;;;;;;;;;;;;;;;;;5094843;28;5017;-56
2023/08/23 04:33:36;;;;;;;;;;;;;;;;;;5093749;28;5109;-55
2023/08/23 04:36:02;;;;;;;;;;;;;;;;;;5095425;28;4905;-56
2023/08/23 04:38:27;;;;;;;;;;;;;;;;;;5093410;28;1226;-56
2023/08/23 04:41:00;;;;;;;;;;;;;;;;;;5072600;28;4831;-56
2023/08/23 04:43:25;;;;;;;;;;;;;;;;;;5089965;28;5031;-56
2023/08/23 04:45:52;;;;;;;;;;;;;;;;;;5102017;28;4942;-56
2023/08/23 04:48:17;;;;;;;;;;;;;;;;;;5103312;28;5002;-56
2023/08/23 04:50:42;;;;;;;;;;;;;;;;;;5091984;28;5058;-56
2023/08/23 04:53:08;;;;;;;;;;;;;;;;;;5086462;28;1914;-56
2023/08/23 04:55:34;;;;;;;;;;;;;;;;;;5091688;28;5964;-56
2023/08/23 04:57:59;;;;;;;;;;;;;;;;;;5096882;28;4954;-56
2023/08/23 05:00:24;;;;;;;;;;;;;;;;;;5093359;28;5119;-56
2023/08/23 05:02:50;;;;;;;;;;;;;;;;;;5094747;28;4987;-55
2023/08/23 05:05:16;;;;;;;;;;;;;;;;;;5100246;28;3375;-56
2023/08/23 05:07:41;;;;;;;;;;;;;;;;;;5091383;28;4780;-56
2023/08/23 05:10:06;;;;;;;;;;;;;;;;;;5091838;28;5228;-56
2023/08/23 05:12:32;;;;;;;;;;;;;;;;;;5090295;28;4843;-56
2023/08/23 05:14:57;;;;;;;;;;;;;;;;;;5098519;28;4697;-56
2023/08/23 05:17:22;;;;;;;;;;;;;;;;;;5093087;28;4842;-56
2023/08/23 05:19:47;;;;;;;;;;;;;;;;;;5103446;28;4952;-56
2023/08/23 05:22:13;;;;;;;;;;;;;;;;;;5088216;28;4456;-56
2023/08/23 05:24:38;;;;;;;;;;;;;;;;;;5098327;28;4825;-56
2023/08/23 05:27:03;;;;;;;;;;;;;;;;;;5093956;28;5498;-56
2023/08/23 05:29:28;;;;;;;;;;;;;;;;;;5095294;28;3270;-56
2023/08/23 05:31:54;;;;;;;;;;;;;;;;;;5086749;28;4975;-56
2023/08/23 05:34:19;;;;;;;;;;;;;;;;;;5086145;28;5136;-56
2023/08/23 05:36:44;;;;;;;;;;;;;;;;;;5064275;28;5171;-57
2023/08/23 05:39:10;;;;;;;;;;;;;;;;;;5076670;28;5009;-57
2023/08/23 05:41:35;;;;;;;;;;;;;;;;;;5090441;28;3159;-56
2023/08/23 05:44:00;;;;;;;;;;;;;;;;;;5084859;28;5169;-57
2023/08/23 05:46:25;;;;;;;;;;;;;;;;;;5086308;28;5109;-57
2023/08/23 05:48:51;;;;;;;;;;;;;;;;;;5083853;28;4929;-56
2023/08/23 05:51:16;;;;;;;;;;;;;;;;;;5082973;28;5070;-56
2023/08/23 05:53:42;;;;;;;;;;;;;;;;;;5093846;28;4963;-56
2023/08/23 05:56:07;;;;;;;;;;;;;;;;;;5082081;28;1510;-56
2023/08/23 05:58:32;;;;;;;;;;;;;;;;;;5077006;28;5080;-56
2023/08/23 06:00:57;;;;;;;;;;;;;;;;;;5075531;28;5033;-56
2023/08/23 06:03:23;;;;;;;;;;;;;;;;;;5077622;28;4813;-56
2023/08/23 06:05:51;;;;;;;;;;;;;;;;;;5080677;28;5013;-56
2023/08/23 06:08:17;;;;;;;;;;;;;;;;;;5069223;28;1548;-57
2023/08/23 06:10:42;;;;;;;;;;;;;;;;;;5077281;28;5136;-57
2023/08/23 06:13:07;;;;;;;;;;;;;;;;;;5085178;28;4905;-56
2023/08/23 06:15:32;;;;;;;;;;;;;;;;;;5058198;28;5013;-56
2023/08/23 06:17:58;;;;;;;;;;;;;;;;;;5070328;28;4822;-57
2023/08/23 06:20:23;;;;;;;;;;;;;;;;;;5076778;28;1089;-56
2023/08/23 06:22:48;;;;;;;;;;;;;;;;;;5063663;28;5109;-56
2023/08/23 06:25:14;;;;;;;;;;;;;;;;;;5081998;28;4435;-56
2023/08/23 06:27:39;;;;;;;;;;;;;;;;;;5084198;28;4971;-56
2023/08/23 06:30:04;;;;;;;;;;;;;;;;;;5071938;28;4932;-56
2023/08/23 06:32:30;;;;;;;;;;;;;;;;;;5073658;28;1927;-57
2023/08/23 06:34:55;;;;;;;;;;;;;;;;;;5076893;28;4898;-57
2023/08/23 06:37:23;;;;;;;;;;;;;;;;;;5079393;28;4637;-57
2023/08/23 06:39:49;;;;;;;;;;;;;;;;;;5076543;28;5052;-57
2023/08/23 06:42:15;;;;;;;;;;;;;;;;;;5068807;28;5094;-57
2023/08/23 06:44:40;;;;;;;;;;;;;;;;;;5066182;28;5146;-54
2023/08/23 06:47:05;;;;;;;;;;;;;;;;;;5052633;28;3337;-56
2023/08/23 06:49:30;;;;;;;;;;;;;;;;;;5077833;28;5301;-57
2023/08/23 06:51:57;;;;;;;;;;;;;;;;;;5068689;28;5034;-56
2023/08/23 06:54:22;;;;;;;;;;;;;;;;;;5076494;28;4920;-57
2023/08/23 06:56:47;;;;;;;;;;;;;;;;;;5069427;28;5145;-57
2023/08/23 06:59:12;;;;;;;;;;;;;;;;;;5073263;28;1325;-56
2023/08/23 07:01:38;;;;;;;;;;;;;;;;;;5077561;28;5036;-57
2023/08/23 07:04:03;;;;;;;;;;;;;;;;;;5076664;28;4815;-57
2023/08/23 07:06:29;;;;;;;;;;;;;;;;;;5071341;28;5024;-56
2023/08/23 07:08:54;;;;;;;;;;;;;;;;;;5052054;28;5140;-56
2023/08/23 07:11:20;;;;;;;;;;;;;;;;;;5080940;28;3446;-57
2023/08/23 07:13:45;;;;;;;;;;;;;;;;;;5069535;28;4999;-57
2023/08/23 07:16:10;;;;;;;;;;;;;;;;;;5069874;28;5174;-57
2023/08/23 07:18:36;;;;;;;;;;;;;;;;;;5061378;28;5114;-57
2023/08/23 07:21:02;;;;;;;;;;;;;;;;;;5058598;28;4605;-56
2023/08/23 07:23:28;;;;;;;;;;;;;;;;;;5069630;28;1464;-57
2023/08/23 07:25:53;;;;;;;;;;;;;;;;;;5070170;28;4811;-56
2023/08/23 07:28:18;;;;;;;;;;;;;;;;;;5065801;28;5329;-57
2023/08/23 07:30:45;;;;;;;;;;;;;;;;;;5060723;28;5059;-57
2023/08/23 07:33:10;;;;;;;;;;;;;;;;;;5061788;28;5108;-57
2023/08/23 07:35:35;;;;;;;;;;;;;;;;;;5070048;28;3351;-56
2023/08/23 07:38:01;;;;;;;;;;;;;;;;;;5065829;28;4762;-56
2023/08/23 07:40:26;;;;;;;;;;;;;;;;;;5060041;28;4537;-57
2023/08/23 07:42:51;;;;;;;;;;;;;;;;;;5062596;28;5132;-56
2023/08/23 07:45:17;;;;;;;;;;;;;;;;;;5064970;28;5314;-62
2023/08/23 07:47:42;;;;;;;;;;;;;;;;;;5077933;28;4994;-55
2023/08/23 07:50:08;;;;;;;;;;;;;;;;;;5080032;28;1409;-51
2023/08/23 07:52:35;;;;;;;;;;;;;;;;;;5036355;28;4988;-59
2023/08/23 07:55:00;;;;;;;;;;;;;;;;;;5061425;28;4574;-57
2023/08/23 07:57:25;;;;;;;;;;;;;;;;;;5070918;28;5022;-63
2023/08/23 07:59:50;;;;;;;;;;;;;;;;;;5086659;28;4955;-58
2023/08/23 08:02:16;;;;;;;;;;;;;;;;;;5065671;28;3240;-60
2023/08/23 08:04:43;;;;;;;;;;;;;;;;;;5068808;28;5063;-61
2023/08/23 08:07:08;;;;;;;;;;;;;;;;;;5075596;28;5059;-59
2023/08/23 08:09:33;;;;;;;;;;;;;;;;;;5087129;28;4937;-58
2023/08/23 08:11:58;;;;;;;;;;;;;;;;;;5085115;28;4570;-54
2023/08/23 08:14:24;;;;;;;;;;;;;;;;;;5080544;28;3443;-62
2023/08/23 08:16:49;;;;;;;;;;;;;;;;;;5085857;28;4906;-57
2023/08/23 08:19:14;;;;;;;;;;;;;;;;;;5085560;28;4534;-55
2023/08/23 08:21:40;;;;;;;;;;;;;;;;;;5081387;28;4633;-57
2023/08/23 08:24:06;;;;;;;;;;;;;;;;;;5088681;28;5100;-59
2023/08/23 08:26:31;;;;;;;;;;;;;;;;;;5106918;28;1254;-55
2023/08/23 08:28:57;;;;;;;;;;;;;;;;;;5071474;28;5016;-54
2023/08/23 08:31:22;;;;;;;;;;;;;;;;;;5087010;28;5056;-56
2023/08/23 08:33:47;;;;;;;;;;;;;;;;;;5085359;28;5180;-58
2023/08/23 08:36:13;;;;;;;;;;;;;;;;;;5087705;28;5244;-51
2023/08/23 08:38:38;;;;;;;;;;;;;;;;;;5088548;28;1287;-52
2023/08/23 08:41:04;;;;;;;;;;;;;;;;;;5085178;28;4635;-55
2023/08/23 08:43:29;;;;;;;;;;;;;;;;;;5089507;28;5168;-58
2023/08/23 08:45:54;;;;;;;;;;;;;;;;;;5077533;28;5016;-58
2023/08/23 08:48:20;;;;;;;;;;;;;;;;;;5072920;28;5178;-63
2023/08/23 08:50:45;;;;;;;;;;;;;;;;;;5097363;28;5024;-59
2023/08/23 08:53:15;;;;;;;;;;;;;;;;;;5086020;28;1913;-55
2023/08/23 08:55:40;;;;;;;;;;;;;;;;;;5088608;28;4969;-58
2023/08/23 08:58:05;;;;;;;;;;;;;;;;;;5105422;28;4852;-57
2023/08/23 09:00:31;;;;;;;;;;;;;;;;;;5066337;28;4738;-56
2023/08/23 09:02:57;;;;;;;;;;;;;;;;;;5105582;28;4850;-58
2023/08/23 09:05:23;;;;;;;;;;;;;;;;;;5089699;28;1246;-58
2023/08/23 09:07:48;;;;;;;;;;;;;;;;;;5088114;28;4928;-58
2023/08/23 09:10:14;;;;;;;;;;;;;;;;;;5087236;28;4848;-57
2023/08/23 09:12:39;;;;;;;;;;;;;;;;;;5089895;28;4710;-57
2023/08/23 09:15:05;;;;;;;;;;;;;;;;;;5088671;28;5071;-56
2023/08/23 09:17:33;;;;;;;;;;;;;;;;;;5071998;28;1203;-57
2023/08/23 09:19:58;;;;;;;;;;;;;;;;;;5091344;28;4901;-57
2023/08/23 09:22:23;;;;;;;;;;;;;;;;;;5086687;28;4616;-57
2023/08/23 09:24:48;;;;;;;;;;;;;;;;;;5089971;28;4839;-57
2023/08/23 09:27:14;;;;;;;;;;;;;;;;;;5088590;28;4831;-57
2023/08/23 09:29:39;;;;;;;;;;;;;;;;;;5089783;28;2357;-57
2023/08/23 09:32:04;;;;;;;;;;;;;;;;;;5088732;28;4837;-58
2023/08/23 09:34:30;;;;;;;;;;;;;;;;;;5087233;28;5213;-58
2023/08/23 09:37:04;;;;;;;;;;;;;;;;;;5092916;28;4997;-59
2023/08/23 09:39:29;;;;;;;;;;;;;;;;;;5088222;28;4799;-58
2023/08/23 09:42:02;;;;;;;;;;;;;;;;;;5105413;28;5057;-58
2023/08/23 09:44:29;;;;;;;;;;;;;;;;;;5064888;28;1124;-58
2023/08/23 09:46:54;;;;;;;;;;;;;;;;;;5089154;28;5099;-58
2023/08/23 09:49:19;;;;;;;;;;;;;;;;;;5090496;28;5290;-58
2023/08/23 09:51:44;;;;;;;;;;;;;;;;;;5088765;28;4613;-59
2023/08/23 09:54:13;;;;;;;;;;;;;;;;;;5051784;28;4842;-59
2023/08/23 09:56:40;;;;;;;;;;;;;;;;;;5070140;28;1437;-59
2023/08/23 09:59:05;;;;;;;;;;;;;;;;;;5051968;28;4657;-59
2023/08/23 10:01:31;;;;;;;;;;;;;;;;;;5076258;28;4601;-58
2023/08/23 10:03:57;;;;;;;;;;;;;;;;;;5087502;28;5104;-59
2023/08/23 10:06:22;;;;;;;;;;;;;;;;;;5105342;28;4730;-57
2023/08/23 10:08:47;;;;;;;;;;;;;;;;;;5086707;28;5099;-58
2023/08/23 10:11:12;;;;;;;;;;;;;;;;;;5101840;28;1260;-58
2023/08/23 10:13:38;;;;;;;;;;;;;;;;;;5088861;28;4965;-58
2023/08/23 10:16:03;;;;;;;;;;;;;;;;;;5088073;28;5262;-58
2023/08/23 10:18:30;;;;;;;;;;;;;;;;;;5072349;28;4871;-59
2023/08/23 10:20:55;;;;;;;;;;;;;;;;;;5101458;28;5625;-58
2023/08/23 10:23:21;;;;;;;;;;;;;;;;;;5076366;28;1399;-58
2023/08/23 10:25:46;;;;;;;;;;;;;;;;;;5085929;28;5029;-52
2023/08/23 10:28:12;;;;;;;;;;;;;;;;;;5081481;28;4990;-53
2023/08/23 10:30:39;;;;;;;;;;;;;;;;;;5082320;28;4485;-52
2023/08/23 10:33:10;;;;;;;;;;;;;;;;;;5081879;28;5066;-54
2023/08/23 10:35:36;;;;;;;;;;;;;;;;;;5083629;28;3226;-53
2023/08/23 10:38:02;;;;;;;;;;;;;;;;;;5086340;28;5026;-51
2023/08/23 10:40:28;;;;;;;;;;;;;;;;;;5079657;28;5048;-55
2023/08/23 10:42:53;;;;;;;;;;;;;;;;;;5071175;28;4953;-60
2023/08/23 10:45:19;;;;;;;;;;;;;;;;;;5078832;28;5062;-60
2023/08/23 10:47:44;;;;;;;;;;;;;;;;;;5076096;28;5129;-59
2023/08/23 10:50:10;;;;;;;;;;;;;;;;;;5064531;28;3607;-59
2023/08/23 10:52:35;;;;;;;;;;;;;;;;;;5064191;28;5146;-61
2023/08/23 10:55:00;;;;;;;;;;;;;;;;;;5068311;28;4887;-61
2023/08/23 10:57:25;;;;;;;;;;;;;;;;;;5057082;28;5114;-60
2023/08/23 10:59:51;;;;;;;;;;;;;;;;;;5064139;28;5067;-57
2023/08/23 11:02:16;;;;;;;;;;;;;;;;;;5061376;28;3251;-57
2023/08/23 11:04:41;;;;;;;;;;;;;;;;;;5057294;28;5104;-57
2023/08/23 11:07:07;;;;;;;;;;;;;;;;;;5054944;28;5704;-56
2023/08/23 11:09:33;;;;;;;;;;;;;;;;;;5064040;28;4488;-58
2023/08/23 11:11:59;;;;;;;;;;;;;;;;;;5062316;28;5156;-56
2023/08/23 11:14:24;;;;;;;;;;;;;;;;;;5065002;28;1901;-59
2023/08/23 11:16:49;;;;;;;;;;;;;;;;;;5060164;28;5272;-58
2023/08/23 11:19:15;;;;;;;;;;;;;;;;;;5060983;28;5147;-58
2023/08/23 11:21:40;;;;;;;;;;;;;;;;;;5060677;28;5577;-57
2023/08/23 11:24:05;;;;;;;;;;;;;;;;;;5054337;28;4935;-58
2023/08/23 11:26:37;;;;;;;;;;;;;;;;;;5064399;28;3291;-58
2023/08/23 11:29:05;;;;;;;;;;;;;;;;;;5064652;28;4585;-58
2023/08/23 11:31:34;;;;;;;;;;;;;;;;;;5062875;28;5023;-58
2023/08/23 11:33:59;;;;;;;;;;;;;;;;;;5065205;28;4470;-59
2023/08/23 11:36:27;;;;;;;;;;;;;;;;;;5064087;28;4960;-63
2023/08/23 11:38:52;;;;;;;;;;;;;;;;;;5065608;28;4853;-59
2023/08/23 11:41:28;;;;;;;;;;;;;;;;;;5055393;28;3325;-59
2023/08/23 11:43:53;;;;;;;;;;;;;;;;;;5059775;28;4557;-58
2023/08/23 11:46:18;;;;;;;;;;;;;;;;;;5064825;28;5095;-59
2023/08/23 11:48:44;;;;;;;;;;;;;;;;;;5063254;28;4527;-58
2023/08/23 11:51:09;;;;;;;;;;;;;;;;;;5056745;28;5194;-58
2023/08/23 11:53:34;;;;;;;;;;;;;;;;;;5062172;28;1979;-59
2023/08/23 11:56:00;;;;;;;;;;;;;;;;;;5078824;28;4955;-57
2023/08/23 11:58:25;;;;;;;;;;;;;;;;;;5058923;28;4829;-61
2023/08/23 12:00:50;;;;;;;;;;;;;;;;;;5064249;28;5021;-61
2023/08/23 12:03:16;;;;;;;;;;;;;;;;;;5061162;28;5125;-59
2023/08/23 12:05:41;;;;;;;;;;;;;;;;;;5065371;28;4486;-58
2023/08/23 12:08:07;;;;;;;;;;;;;;;;;;5060347;28;3320;-57
2023/08/23 12:10:32;;;;;;;;;;;;;;;;;;5061436;28;4798;-59
2023/08/23 12:12:57;;;;;;;;;;;;;;;;;;5059841;28;5141;-58
2023/08/23 12:15:23;;;;;;;;;;;;;;;;;;5062372;28;4992;-59
2023/08/23 12:17:48;;;;;;;;;;;;;;;;;;5063600;28;4771;-58
2023/08/23 12:20:13;;;;;;;;;;;;;;;;;;5065918;28;3281;-57
2023/08/23 12:22:43;;;;;;;;;;;;;;;;;;5060189;28;5012;-58
2023/08/23 12:25:09;;;;;;;;;;;;;;;;;;5062959;28;4987;-59
2023/08/23 12:27:34;;;;;;;;;;;;;;;;;;5063194;28;5269;-61
2023/08/23 12:29:59;;;;;;;;;;;;;;;;;;5068569;28;4697;-60
2023/08/23 12:32:25;;;;;;;;;;;;;;;;;;5063280;28;3250;-60
2023/08/23 12:34:50;;;;;;;;;;;;;;;;;;5061050;28;4943;-60
2023/08/23 12:37:15;;;;;;;;;;;;;;;;;;5065232;28;5257;-59
2023/08/23 12:39:40;;;;;;;;;;;;;;;;;;5062531;28;4483;-59
2023/08/23 12:42:06;;;;;;;;;;;;;;;;;;5067439;28;4976;-59
2023/08/23 12:44:33;;;;;;;;;;;;;;;;;;5067161;28;3197;-59
2023/08/23 12:46:58;;;;;;;;;;;;;;;;;;5060925;28;5305;-59
2023/08/23 12:49:23;;;;;;;;;;;;;;;;;;5068182;28;5017;-59
2023/08/23 12:51:48;;;;;;;;;;;;;;;;;;5061592;28;4837;-59
2023/08/23 12:54:14;;;;;;;;;;;;;;;;;;5064660;28;4905;-59
2023/08/23 12:56:39;;;;;;;;;;;;;;;;;;5068391;28;3232;-60
2023/08/23 12:59:05;;;;;;;;;;;;;;;;;;5063958;28;5005;-60
2023/08/23 13:01:31;;;;;;;;;;;;;;;;;;5059738;28;4950;-60
2023/08/23 13:03:56;;;;;;;;;;;;;;;;;;5065360;28;4741;-61
2023/08/23 13:06:21;;;;;;;;;;;;;;;;;;5067667;28;5987;-60
2023/08/23 13:08:46;;;;;;;;;;;;;;;;;;5060793;28;4938;-61
2023/08/23 13:11:12;;;;;;;;;;;;;;;;;;5056317;28;1188;-58
2023/08/23 13:13:38;;;;;;;;;;;;;;;;;;5067459;28;5071;-58
2023/08/23 13:16:04;;;;;;;;;;;;;;;;;;5059759;28;5032;-61
2023/08/23 13:18:30;;;;;;;;;;;;;;;;;;5064768;28;4962;-61
2023/08/23 13:20:55;;;;;;;;;;;;;;;;;;5069809;28;5887;-61
2023/08/23 13:23:20;;;;;;;;;;;;;;;;;;5080495;28;3278;-60
2023/08/23 13:25:46;;;;;;;;;;;;;;;;;;5062736;28;4803;-60
2023/08/23 13:28:11;;;;;;;;;;;;;;;;;;5066383;28;4581;-59
2023/08/23 13:30:36;;;;;;;;;;;;;;;;;;5074672;28;5099;-59
2023/08/23 13:33:01;;;;;;;;;;;;;;;;;;5081328;28;4642;-59
2023/08/23 13:35:27;;;;;;;;;;;;;;;;;;5085070;28;3377;-59
2023/08/23 13:37:52;;;;;;;;;;;;;;;;;;5082230;28;5731;-58
2023/08/23 13:40:17;;;;;;;;;;;;;;;;;;5061312;28;5090;-50
2023/08/23 13:42:42;;;;;;;;;;;;;;;;;;5083975;28;5054;-51
2023/08/23 13:45:08;;;;;;;;;;;;;;;;;;5087631;28;5032;-50
2023/08/23 13:47:34;;;;;;;;;;;;;;;;;;5082064;28;3257;-49
2023/08/23 13:49:59;;;;;;;;;;;;;;;;;;5090407;28;4881;-50
2023/08/23 13:52:24;;;;;;;;;;;;;;;;;;5094829;28;5078;-52
2023/08/23 13:54:50;;;;;;;;;;;;;;;;;;5080859;28;4485;-52
2023/08/23 13:57:15;;;;;;;;;;;;;;;;;;5088967;28;4858;-52
2023/08/23 13:59:40;;;;;;;;;;;;;;;;;;5089241;28;4963;-52
2023/08/23 14:02:05;;;;;;;;;;;;;;;;;;5090322;28;1108;-52
2023/08/23 14:04:36;;;;;;;;;;;;;;;;;;5084674;28;5008;-50
2023/08/23 14:07:01;;;;;;;;;;;;;;;;;;5082916;28;5086;-53
2023/08/23 14:09:26;;;;;;;;;;;;;;;;;;5071642;28;4481;-52
2023/08/23 14:11:52;;;;;;;;;;;;;;;;;;5091677;28;5071;-51
2023/08/23 14:14:17;;;;;;;;;;;;;;;;;;5083233;28;1965;-53
2023/08/23 14:16:43;;;;;;;;;;;;;;;;;;5089371;28;5089;-52
2023/08/23 14:19:08;;;;;;;;;;;;;;;;;;5082458;28;5156;-53
2023/08/23 14:21:33;;;;;;;;;;;;;;;;;;5091719;28;5776;-51
2023/08/23 14:23:59;;;;;;;;;;;;;;;;;;5070362;28;5142;-51
2023/08/23 14:26:24;;;;;;;;;;;;;;;;;;5093880;28;1628;-51
2023/08/23 14:28:49;;;;;;;;;;;;;;;;;;5090785;28;4942;-51
2023/08/23 14:31:14;;;;;;;;;;;;;;;;;;5091435;28;4834;-51
2023/08/23 14:33:40;;;;;;;;;;;;;;;;;;5093196;28;4683;-52
2023/08/23 14:36:05;;;;;;;;;;;;;;;;;;5087822;28;5117;-53
2023/08/23 14:38:30;;;;;;;;;;;;;;;;;;5076101;28;3302;-50
2023/08/23 14:40:55;;;;;;;;;;;;;;;;;;5093776;28;5224;-51
2023/08/23 14:43:21;;;;;;;;;;;;;;;;;;5074659;28;4876;-52
2023/08/23 14:45:46;;;;;;;;;;;;;;;;;;5092508;28;4943;-50
2023/08/23 14:48:11;;;;;;;;;;;;;;;;;;5082291;28;5050;-49
2023/08/23 14:50:37;;;;;;;;;;;;;;;;;;5086043;28;3321;-49
2023/08/23 14:53:02;;;;;;;;;;;;;;;;;;5085485;28;4701;-53
2023/08/23 14:55:29;;;;;;;;;;;;;;;;;;5077998;28;4466;-53
2023/08/23 14:57:54;;;;;;;;;;;;;;;;;;5076853;28;5258;-51
2023/08/23 15:00:20;;;;;;;;;;;;;;;;;;5088514;28;5129;-53
2023/08/23 15:02:45;;;;;;;;;;;;;;;;;;5080138;28;5116;-53
2023/08/23 15:05:10;;;;;;;;;;;;;;;;;;5088571;28;3083;-52
2023/08/23 15:07:36;;;;;;;;;;;;;;;;;;5078607;28;5113;-53
2023/08/23 15:10:02;;;;;;;;;;;;;;;;;;5081279;28;4590;-52
2023/08/23 15:12:27;;;;;;;;;;;;;;;;;;5083830;28;5037;-51
2023/08/23 15:14:53;;;;;;;;;;;;;;;;;;5081855;28;4983;-51
2023/08/23 15:17:18;;;;;;;;;;;;;;;;;;5085854;28;4739;-53
2023/08/23 15:19:45;;;;;;;;;;;;;;;;;;5079267;28;5016;-50
2023/08/23 15:22:11;;;;;;;;;;;;;;;;;;5076814;28;5090;-53
2023/08/23 15:24:36;;;;;;;;;;;;;;;;;;5085978;28;4962;-53
2023/08/23 15:27:01;;;;;;;;;;;;;;;;;;5081700;28;5124;-53
2023/08/23 15:29:27;;;;;;;;;;;;;;;;;;5078726;28;3476;-51
2023/08/23 15:31:52;;;;;;;;;;;;;;;;;;5080500;28;5162;-52
2023/08/23 15:34:17;;;;;;;;;;;;;;;;;;5065885;28;5271;-52
2023/08/23 15:36:42;;;;;;;;;;;;;;;;;;5080931;28;5692;-52
2023/08/23 15:39:08;;;;;;;;;;;;;;;;;;5084846;28;5002;-52
2023/08/23 15:41:33;;;;;;;;;;;;;;;;;;5085186;28;3317;-52
2023/08/23 15:43:58;;;;;;;;;;;;;;;;;;5078399;28;4652;-49
2023/08/23 15:46:24;;;;;;;;;;;;;;;;;;5085983;28;5089;-50
2023/08/23 15:48:49;;;;;;;;;;;;;;;;;;5084046;28;4422;-48
2023/08/23 15:51:14;;;;;;;;;;;;;;;;;;5085166;28;5041;-52
2023/08/23 15:53:40;;;;;;;;;;;;;;;;;;5086979;28;3111;-52
2023/08/23 15:56:05;;;;;;;;;;;;;;;;;;5087094;28;5046;-51
2023/08/23 15:58:30;;;;;;;;;;;;;;;;;;5087381;28;5050;-54
2023/08/23 16:00:56;;;;;;;;;;;;;;;;;;5088532;28;5049;-51
2023/08/23 16:03:21;;;;;;;;;;;;;;;;;;5086500;28;4830;-57
2023/08/23 16:05:54;;;;;;;;;;;;;;;;;;5079740;28;5151;-55
2023/08/23 16:08:19;;;;;;;;;;;;;;;;;;5081715;28;4479;-58
2023/08/23 16:10:45;;;;;;;;;;;;;;;;;;5074329;28;4472;-61
2023/08/23 16:13:10;;;;;;;;;;;;;;;;;;5084927;28;5097;-61
2023/08/23 16:15:35;;;;;;;;;;;;;;;;;;5087588;28;4900;-60
2023/08/23 16:18:00;;;;;;;;;;;;;;;;;;5084075;28;5296;-60
2023/08/23 16:20:26;;;;;;;;;;;;;;;;;;5084532;28;3571;-58
2023/08/23 16:22:51;;;;;;;;;;;;;;;;;;5067915;28;4988;-59
2023/08/23 16:25:16;;;;;;;;;;;;;;;;;;5085108;28;4890;-58
2023/08/23 16:27:41;;;;;;;;;;;;;;;;;;5084318;28;5248;-57
2023/08/23 16:30:07;;;;;;;;;;;;;;;;;;5085080;28;4476;-58
2023/08/23 16:32:32;;;;;;;;;;;;;;;;;;5083861;28;3551;-59
2023/08/23 16:34:57;;;;;;;;;;;;;;;;;;5086084;28;4585;-60
2023/08/23 16:37:23;;;;;;;;;;;;;;;;;;5082654;28;6231;-60
2023/08/23 16:39:48;;;;;;;;;;;;;;;;;;5085740;28;5059;-58
2023/08/23 16:42:13;;;;;;;;;;;;;;;;;;5085620;28;5119;-57
2023/08/23 16:44:39;;;;;;;;;;;;;;;;;;5090215;28;1495;-57
2023/08/23 16:47:04;;;;;;;;;;;;;;;;;;5086092;28;5159;-58
2023/08/23 16:49:29;;;;;;;;;;;;;;;;;;5088655;28;4450;-60
2023/08/23 16:51:55;;;;;;;;;;;;;;;;;;5083148;28;4517;-58